Ana Sayfa
METAR-TAF:

METAR-TAF

Havaalanları :

Collin County Regional Airport at McKinney

McKinney, Teksas, Amerika Birleşik Devletleri

Enlem: 33-10-40N, Boylam: 096-35-25W, yükseklik: 178 m

Güncel hava durumu gözlemi

Rapor saat 03:53 UTC de 25 dakika önce yapıldı.
Rüzgar kuzey/kuzeybatıdan 7 kt
Sıcaklık 13°C
Nem 62%
Basınç 1013 hPa
Görüş mesafesi: 16.1 km
8000 ft yükseklikte az bulutlu

METAR: KTKI 190353Z AUTO 33007KT 10SM FEW080 13/06 A2992 RMK AO2 PK WND 33040/0255 SLP138 T01330061

Saat: 23:18 (04:18 UTC)


TAF: eksik

4.000'den fazla havaalanı için hava durumu gözlemleri ve tahminleri (METAR ve TAF raporları).

Kullanılabilir istasyonlar harita üzerinde sarı ve kırmızı noktalarla gösterilir.

İstasyonun adını görmek için fareyi noktanın üzerinde gezdirin.

Sonrasında hava gözlem ve tahminlerini görmek için tıklayın.

Haritayı değiştirmek için: yaklaştırmak için siyah artı işaretli yeşil düğmeye ve uzaklaştırmak için de eksi işaretli düğmeye hızla tıklayın; bitişik haritalar için yeşil okları kullanın.


METAR-TAF: